sensor_id;sensor_type;location;lat;lon;timestamp;temperature;humidity
29207;DHT22;16247;50.840;4.382;2023-04-24T00:02:09;10.10;99.90
29207;DHT22;16247;50.840;4.382;2023-04-24T00:04:36;10.10;99.90
29207;DHT22;16247;50.840;4.382;2023-04-24T00:07:05;10.10;99.90
29207;DHT22;16247;50.840;4.382;2023-04-24T00:09:32;10.20;99.90
29207;DHT22;16247;50.840;4.382;2023-04-24T00:11:57;10.10;99.90
29207;DHT22;16247;50.840;4.382;2023-04-24T00:14:23;10.20;99.90
29207;DHT22;16247;50.840;4.382;2023-04-24T00:16:50;10.10;99.90
29207;DHT22;16247;50.840;4.382;2023-04-24T00:19:22;10.10;99.90
29207;DHT22;16247;50.840;4.382;2023-04-24T00:21:48;9.90;99.90
29207;DHT22;16247;50.840;4.382;2023-04-24T00:24:17;10.00;99.90
29207;DHT22;16247;50.840;4.382;2023-04-24T00:29:12;10.00;99.90
29207;DHT22;16247;50.840;4.382;2023-04-24T00:31:37;10.00;99.90
29207;DHT22;16247;50.840;4.382;2023-04-24T00:34:03;9.90;99.90
29207;DHT22;16247;50.840;4.382;2023-04-24T00:36:31;9.90;99.90
29207;DHT22;16247;50.840;4.382;2023-04-24T00:38:58;9.90;99.90
29207;DHT22;16247;50.840;4.382;2023-04-24T00:41:25;10.10;99.90
29207;DHT22;16247;50.840;4.382;2023-04-24T00:43:51;9.90;99.90
29207;DHT22;16247;50.840;4.382;2023-04-24T00:46:17;10.00;99.90
29207;DHT22;16247;50.840;4.382;2023-04-24T00:48:43;9.90;99.90
29207;DHT22;16247;50.840;4.382;2023-04-24T00:51:09;9.90;99.90
29207;DHT22;16247;50.840;4.382;2023-04-24T00:53:34;9.80;99.90
29207;DHT22;16247;50.840;4.382;2023-04-24T00:56:00;9.90;99.90
29207;DHT22;16247;50.840;4.382;2023-04-24T00:58:26;9.90;99.90
29207;DHT22;16247;50.840;4.382;2023-04-24T01:00:52;9.80;99.90
29207;DHT22;16247;50.840;4.382;2023-04-24T01:03:20;10.00;99.90
29207;DHT22;16247;50.840;4.382;2023-04-24T01:05:49;9.90;99.90
29207;DHT22;16247;50.840;4.382;2023-04-24T01:08:16;9.90;99.90
29207;DHT22;16247;50.840;4.382;2023-04-24T01:10:47;9.90;99.90
29207;DHT22;16247;50.840;4.382;2023-04-24T01:13:16;9.90;99.90
29207;DHT22;16247;50.840;4.382;2023-04-24T01:15:44;9.80;99.90
29207;DHT22;16247;50.840;4.382;2023-04-24T01:18:09;9.90;99.90
29207;DHT22;16247;50.840;4.382;2023-04-24T01:20:38;10.00;99.90
29207;DHT22;16247;50.840;4.382;2023-04-24T01:23:08;9.90;99.90
29207;DHT22;16247;50.840;4.382;2023-04-24T01:25:34;9.90;99.90
29207;DHT22;16247;50.840;4.382;2023-04-24T01:28:02;9.70;99.90
29207;DHT22;16247;50.840;4.382;2023-04-24T01:30:27;9.80;99.90
29207;DHT22;16247;50.840;4.382;2023-04-24T01:32:53;9.60;99.90
29207;DHT22;16247;50.840;4.382;2023-04-24T01:35:19;9.60;99.90
29207;DHT22;16247;50.840;4.382;2023-04-24T01:37:45;9.50;99.90
29207;DHT22;16247;50.840;4.382;2023-04-24T01:40:12;9.50;99.90
29207;DHT22;16247;50.840;4.382;2023-04-24T01:42:37;9.70;99.90
29207;DHT22;16247;50.840;4.382;2023-04-24T01:45:03;9.60;99.90
29207;DHT22;16247;50.840;4.382;2023-04-24T01:49:59;9.50;99.90
29207;DHT22;16247;50.840;4.382;2023-04-24T01:52:24;9.50;99.90
29207;DHT22;16247;50.840;4.382;2023-04-24T01:54:50;9.60;99.90
29207;DHT22;16247;50.840;4.382;2023-04-24T01:57:17;9.60;99.90
29207;DHT22;16247;50.840;4.382;2023-04-24T01:59:43;9.50;99.90
29207;DHT22;16247;50.840;4.382;2023-04-24T02:02:08;9.50;99.90
29207;DHT22;16247;50.840;4.382;2023-04-24T02:04:34;9.50;99.90
29207;DHT22;16247;50.840;4.382;2023-04-24T02:07:00;9.40;99.90
29207;DHT22;16247;50.840;4.382;2023-04-24T02:09:26;9.30;99.90
29207;DHT22;16247;50.840;4.382;2023-04-24T02:11:52;9.40;99.90
29207;DHT22;16247;50.840;4.382;2023-04-24T02:14:18;9.40;99.90
29207;DHT22;16247;50.840;4.382;2023-04-24T02:16:45;9.40;99.90
29207;DHT22;16247;50.840;4.382;2023-04-24T02:19:11;9.40;99.90
29207;DHT22;16247;50.840;4.382;2023-04-24T02:21:50;9.40;99.90
29207;DHT22;16247;50.840;4.382;2023-04-24T02:30:10;9.40;99.90
29207;DHT22;16247;50.840;4.382;2023-04-24T02:32:35;9.40;99.90
29207;DHT22;16247;50.840;4.382;2023-04-24T02:35:01;9.30;99.90
29207;DHT22;16247;50.840;4.382;2023-04-24T02:37:27;9.40;99.90
29207;DHT22;16247;50.840;4.382;2023-04-24T02:39:52;9.40;99.90
29207;DHT22;16247;50.840;4.382;2023-04-24T02:42:18;9.40;99.90
29207;DHT22;16247;50.840;4.382;2023-04-24T02:44:44;9.30;99.90
29207;DHT22;16247;50.840;4.382;2023-04-24T02:47:09;9.40;99.90
29207;DHT22;16247;50.840;4.382;2023-04-24T02:49:35;9.40;99.90
29207;DHT22;16247;50.840;4.382;2023-04-24T02:52:01;9.40;99.90
29207;DHT22;16247;50.840;4.382;2023-04-24T02:54:26;9.50;99.90
29207;DHT22;16247;50.840;4.382;2023-04-24T02:56:52;9.50;99.90
29207;DHT22;16247;50.840;4.382;2023-04-24T02:59:17;9.40;99.90
29207;DHT22;16247;50.840;4.382;2023-04-24T03:01:43;9.60;99.90
29207;DHT22;16247;50.840;4.382;2023-04-24T03:04:09;9.50;99.90
29207;DHT22;16247;50.840;4.382;2023-04-24T03:06:35;9.50;99.90
29207;DHT22;16247;50.840;4.382;2023-04-24T03:09:01;9.50;99.90
29207;DHT22;16247;50.840;4.382;2023-04-24T03:11:30;9.40;99.90
29207;DHT22;16247;50.840;4.382;2023-04-24T03:13:56;9.40;99.90
29207;DHT22;16247;50.840;4.382;2023-04-24T03:16:22;9.30;99.90
29207;DHT22;16247;50.840;4.382;2023-04-24T03:18:48;9.30;99.90
29207;DHT22;16247;50.840;4.382;2023-04-24T03:21:13;9.40;99.90
29207;DHT22;16247;50.840;4.382;2023-04-24T03:23:39;9.40;99.90
29207;DHT22;16247;50.840;4.382;2023-04-24T03:26:05;9.40;99.90
29207;DHT22;16247;50.840;4.382;2023-04-24T03:28:30;9.30;99.90
29207;DHT22;16247;50.840;4.382;2023-04-24T03:30:56;9.30;99.90
29207;DHT22;16247;50.840;4.382;2023-04-24T03:33:21;9.30;99.90
29207;DHT22;16247;50.840;4.382;2023-04-24T03:35:47;9.30;99.90
29207;DHT22;16247;50.840;4.382;2023-04-24T03:38:13;9.30;99.90
29207;DHT22;16247;50.840;4.382;2023-04-24T03:40:38;9.20;99.90
29207;DHT22;16247;50.840;4.382;2023-04-24T03:43:04;9.30;99.90
29207;DHT22;16247;50.840;4.382;2023-04-24T03:45:30;9.40;99.90
29207;DHT22;16247;50.840;4.382;2023-04-24T03:47:56;9.60;99.90
29207;DHT22;16247;50.840;4.382;2023-04-24T03:50:21;9.60;99.90
29207;DHT22;16247;50.840;4.382;2023-04-24T03:52:48;9.50;99.90
29207;DHT22;16247;50.840;4.382;2023-04-24T03:55:14;9.40;99.90
29207;DHT22;16247;50.840;4.382;2023-04-24T03:57:40;9.60;99.90
29207;DHT22;16247;50.840;4.382;2023-04-24T04:00:07;9.60;99.90
29207;DHT22;16247;50.840;4.382;2023-04-24T04:02:37;9.50;99.90
29207;DHT22;16247;50.840;4.382;2023-04-24T04:05:07;9.60;99.90
29207;DHT22;16247;50.840;4.382;2023-04-24T04:10:01;9.60;99.90
29207;DHT22;16247;50.840;4.382;2023-04-24T04:12:27;9.70;99.90
29207;DHT22;16247;50.840;4.382;2023-04-24T04:14:53;9.80;99.90
29207;DHT22;16247;50.840;4.382;2023-04-24T04:17:20;9.80;99.90
29207;DHT22;16247;50.840;4.382;2023-04-24T04:19:46;9.80;99.90
29207;DHT22;16247;50.840;4.382;2023-04-24T04:22:11;9.80;99.90
29207;DHT22;16247;50.840;4.382;2023-04-24T04:24:38;9.80;99.90
29207;DHT22;16247;50.840;4.382;2023-04-24T04:27:06;9.90;99.90
29207;DHT22;16247;50.840;4.382;2023-04-24T04:29:32;9.90;99.90
29207;DHT22;16247;50.840;4.382;2023-04-24T04:31:58;10.00;99.90
29207;DHT22;16247;50.840;4.382;2023-04-24T04:34:23;9.90;99.90
29207;DHT22;16247;50.840;4.382;2023-04-24T04:36:49;9.90;99.90
29207;DHT22;16247;50.840;4.382;2023-04-24T04:39:15;9.90;99.90
29207;DHT22;16247;50.840;4.382;2023-04-24T04:41:41;9.90;99.90
29207;DHT22;16247;50.840;4.382;2023-04-24T04:44:07;9.80;99.90
29207;DHT22;16247;50.840;4.382;2023-04-24T04:46:34;9.70;99.90
29207;DHT22;16247;50.840;4.382;2023-04-24T04:49:00;9.70;99.90
29207;DHT22;16247;50.840;4.382;2023-04-24T04:51:29;9.90;99.90
29207;DHT22;16247;50.840;4.382;2023-04-24T04:53:55;9.70;99.90
29207;DHT22;16247;50.840;4.382;2023-04-24T04:56:21;9.70;99.90
29207;DHT22;16247;50.840;4.382;2023-04-24T04:58:47;9.70;99.90
29207;DHT22;16247;50.840;4.382;2023-04-24T05:01:14;9.70;99.90
29207;DHT22;16247;50.840;4.382;2023-04-24T05:03:39;9.70;99.90
29207;DHT22;16247;50.840;4.382;2023-04-24T05:06:06;9.50;99.90
29207;DHT22;16247;50.840;4.382;2023-04-24T05:08:32;9.70;99.90
29207;DHT22;16247;50.840;4.382;2023-04-24T05:10:58;9.70;99.90
29207;DHT22;16247;50.840;4.382;2023-04-24T05:13:24;9.70;99.90
29207;DHT22;16247;50.840;4.382;2023-04-24T05:15:53;9.80;99.90
29207;DHT22;16247;50.840;4.382;2023-04-24T05:18:21;9.70;99.90
29207;DHT22;16247;50.840;4.382;2023-04-24T05:20:56;9.80;99.90
29207;DHT22;16247;50.840;4.382;2023-04-24T05:23:21;9.70;99.90
29207;DHT22;16247;50.840;4.382;2023-04-24T05:28:51;9.70;99.90
29207;DHT22;16247;50.840;4.382;2023-04-24T05:39:57;9.60;99.90
29207;DHT22;16247;50.840;4.382;2023-04-24T05:42:23;9.70;99.90
29207;DHT22;16247;50.840;4.382;2023-04-24T05:44:50;9.60;99.90
29207;DHT22;16247;50.840;4.382;2023-04-24T05:47:17;9.60;99.90
29207;DHT22;16247;50.840;4.382;2023-04-24T05:49:43;9.70;99.90
29207;DHT22;16247;50.840;4.382;2023-04-24T05:52:11;9.70;99.90
29207;DHT22;16247;50.840;4.382;2023-04-24T05:55:04;9.80;99.90
29207;DHT22;16247;50.840;4.382;2023-04-24T05:57:31;9.60;99.90
29207;DHT22;16247;50.840;4.382;2023-04-24T05:59:59;9.70;99.90
29207;DHT22;16247;50.840;4.382;2023-04-24T06:02:39;9.70;99.90
29207;DHT22;16247;50.840;4.382;2023-04-24T06:05:06;9.80;99.90
29207;DHT22;16247;50.840;4.382;2023-04-24T06:10:08;9.70;99.90
29207;DHT22;16247;50.840;4.382;2023-04-24T06:15:10;9.50;99.90
29207;DHT22;16247;50.840;4.382;2023-04-24T06:17:35;9.70;99.90
29207;DHT22;16247;50.840;4.382;2023-04-24T06:20:04;9.80;99.90
29207;DHT22;16247;50.840;4.382;2023-04-24T06:22:32;9.60;99.90
29207;DHT22;16247;50.840;4.382;2023-04-24T06:25:03;9.60;99.90
29207;DHT22;16247;50.840;4.382;2023-04-24T06:27:30;9.60;99.90
29207;DHT22;16247;50.840;4.382;2023-04-24T06:30:05;9.60;99.90
29207;DHT22;16247;50.840;4.382;2023-04-24T06:32:33;9.60;99.90
29207;DHT22;16247;50.840;4.382;2023-04-24T06:34:59;9.60;99.90
29207;DHT22;16247;50.840;4.382;2023-04-24T06:37:28;9.70;99.90
29207;DHT22;16247;50.840;4.382;2023-04-24T06:40:04;9.60;99.90
29207;DHT22;16247;50.840;4.382;2023-04-24T06:42:31;9.70;99.90
29207;DHT22;16247;50.840;4.382;2023-04-24T06:45:00;9.60;99.90
29207;DHT22;16247;50.840;4.382;2023-04-24T06:50:23;9.70;99.90
29207;DHT22;16247;50.840;4.382;2023-04-24T06:52:55;9.70;99.90
29207;DHT22;16247;50.840;4.382;2023-04-24T06:55:48;9.90;99.90
29207;DHT22;16247;50.840;4.382;2023-04-24T06:58:25;9.90;99.90
29207;DHT22;16247;50.840;4.382;2023-04-24T07:00:52;9.90;99.90
29207;DHT22;16247;50.840;4.382;2023-04-24T07:08:29;9.90;99.90
29207;DHT22;16247;50.840;4.382;2023-04-24T07:11:01;9.90;99.90
29207;DHT22;16247;50.840;4.382;2023-04-24T07:13:33;10.00;99.90
29207;DHT22;16247;50.840;4.382;2023-04-24T07:16:00;10.10;99.90
29207;DHT22;16247;50.840;4.382;2023-04-24T07:18:26;10.00;99.90
29207;DHT22;16247;50.840;4.382;2023-04-24T07:20:53;10.00;99.90
29207;DHT22;16247;50.840;4.382;2023-04-24T07:23:19;10.10;99.90
29207;DHT22;16247;50.840;4.382;2023-04-24T07:38:51;10.10;99.90
29207;DHT22;16247;50.840;4.382;2023-04-24T07:49:46;10.00;99.90
29207;DHT22;16247;50.840;4.382;2023-04-24T08:03:22;10.30;99.90
29207;DHT22;16247;50.840;4.382;2023-04-24T08:06:13;10.50;99.90
29207;DHT22;16247;50.840;4.382;2023-04-24T08:20:08;10.30;99.90
29207;DHT22;16247;50.840;4.382;2023-04-24T08:23:27;10.40;99.90
29207;DHT22;16247;50.840;4.382;2023-04-24T08:36:48;10.40;99.90
29207;DHT22;16247;50.840;4.382;2023-04-24T08:47:45;10.80;99.90
29207;DHT22;16247;50.840;4.382;2023-04-24T09:14:45;11.80;99.90
29207;DHT22;16247;50.840;4.382;2023-04-24T09:36:41;11.60;99.90
29207;DHT22;16247;50.840;4.382;2023-04-24T09:42:19;11.60;99.90
29207;DHT22;16247;50.840;4.382;2023-04-24T09:45:10;11.60;99.90
29207;DHT22;16247;50.840;4.382;2023-04-24T09:48:02;11.60;99.90
29207;DHT22;16247;50.840;4.382;2023-04-24T09:53:05;11.80;99.90
29207;DHT22;16247;50.840;4.382;2023-04-24T09:58:49;11.90;99.90
29207;DHT22;16247;50.840;4.382;2023-04-24T10:01:29;12.00;99.90
29207;DHT22;16247;50.840;4.382;2023-04-24T10:03:58;11.70;99.90
29207;DHT22;16247;50.840;4.382;2023-04-24T10:06:47;11.70;99.90
29207;DHT22;16247;50.840;4.382;2023-04-24T10:09:27;11.70;99.90
29207;DHT22;16247;50.840;4.382;2023-04-24T10:12:00;11.90;99.90
29207;DHT22;16247;50.840;4.382;2023-04-24T10:22:21;11.70;99.90
29207;DHT22;16247;50.840;4.382;2023-04-24T10:24:57;11.80;99.90
29207;DHT22;16247;50.840;4.382;2023-04-24T10:27:37;11.70;99.90
29207;DHT22;16247;50.840;4.382;2023-04-24T10:31:00;11.50;99.90
29207;DHT22;16247;50.840;4.382;2023-04-24T10:54:46;12.30;99.90
29207;DHT22;16247;50.840;4.382;2023-04-24T11:00:59;12.50;99.90
29207;DHT22;16247;50.840;4.382;2023-04-24T11:04:21;12.50;99.90
29207;DHT22;16247;50.840;4.382;2023-04-24T11:23:06;12.60;99.90
29207;DHT22;16247;50.840;4.382;2023-04-24T11:26:11;12.40;99.90
29207;DHT22;16247;50.840;4.382;2023-04-24T11:36:51;12.80;99.90
29207;DHT22;16247;50.840;4.382;2023-04-24T11:51:15;13.20;99.90
29207;DHT22;16247;50.840;4.382;2023-04-24T11:57:07;13.00;99.90
29207;DHT22;16247;50.840;4.382;2023-04-24T12:00:01;13.30;99.90
29207;DHT22;16247;50.840;4.382;2023-04-24T12:13:24;13.00;99.90
29207;DHT22;16247;50.840;4.382;2023-04-24T13:00:16;13.40;99.90
29207;DHT22;16247;50.840;4.382;2023-04-24T13:03:18;13.30;99.90
29207;DHT22;16247;50.840;4.382;2023-04-24T13:27:08;14.60;99.90
29207;DHT22;16247;50.840;4.382;2023-04-24T13:40:50;14.70;99.90
29207;DHT22;16247;50.840;4.382;2023-04-24T13:46:05;14.40;99.90
29207;DHT22;16247;50.840;4.382;2023-04-24T13:49:03;14.40;99.90
29207;DHT22;16247;50.840;4.382;2023-04-24T13:54:36;14.40;99.90
29207;DHT22;16247;50.840;4.382;2023-04-24T13:57:02;15.00;99.90
29207;DHT22;16247;50.840;4.382;2023-04-24T13:59:35;14.60;99.90
29207;DHT22;16247;50.840;4.382;2023-04-24T14:02:17;14.70;99.90
29207;DHT22;16247;50.840;4.382;2023-04-24T14:04:45;14.80;99.90
29207;DHT22;16247;50.840;4.382;2023-04-24T14:08:01;14.80;99.90
29207;DHT22;16247;50.840;4.382;2023-04-24T14:10:47;14.20;99.90
29207;DHT22;16247;50.840;4.382;2023-04-24T14:15:54;14.00;99.90
29207;DHT22;16247;50.840;4.382;2023-04-24T14:18:43;14.10;99.90
29207;DHT22;16247;50.840;4.382;2023-04-24T15:36:37;13.60;99.90
